Airfield :
LOGIN :

Register | Disclaimer

   EN    FR    IT 

 










Legend :    VFR   Marginal VFR   IFR   Intensive IFR   Very Intensive IFR
Visi :
Ceiling :
>= 8 km
>= 3000ft
5 to 8 km
1000 to 3000 ft
1500m to 5 km
500 to 1000 ft
800 to 1500m
200 to 500 ft
< 800m
< 200 ft
Symbols :   Thunderstorms  Fog  Heavy snow  Heavy precipitations  Wind > 20 kt
SIGMETs :     Misc.  Thunderstorms  Icing  Turbulence  Mountain Waves  Volcanic Ashes






- Airport Elevation : 464 ft
- IATA code : EVX


LFOE - Evreux

CURRENT METAR :
  • 070730Z AUTO 33007KT 290V010 9999 BKN017 BKN030 OVC037 18/14 Q1027 NOSIG

EXPIRED METARs :
  • 070700Z AUTO 31006KT 280V360 9999 BKN015 BKN038 18/14 Q1026 NOSIG
  • 070630Z AUTO 30006KT 270V350 9999 FEW011 18/15 Q1026 NOSIG
  • 070600Z AUTO 30006KT 9999 SCT039 16/15 Q1026 NOSIG
  • 070530Z AUTO 30007KT 9999 OVC038 15/14 Q1026 NOSIG
  • 070500Z AUTO 32005KT 280V360 9999 OVC039 15/14 Q1026 TEMPO BKN004
  • 070430Z AUTO 28004KT 250V310 9999 BKN040 14/13 Q1025 TEMPO BKN004

TAF TAF LFOE
Valid from the 07 at 03:00 until the 08 at 03:00 UTC


070200Z 0703/0803 29008KT CAVOK
TEMPO 0703/0706 BKN004
BECMG 0712/0715 01010KT



MET'MAP, your aeronautical weather chart ! - Copyright ORBIFLY December 2007 - Disclaimer

ORBIFLY MET'MAP TEAM :

Programming & Development : Alexandra Zaïnal
Original concept : Baudouin d'Aumeries
Technical & hardware support : Manuel Goepfert
Assistance : Marc-Olivier Méhu




SOURCES & CREDITS :

   NOAA